sensor_id;sensor_type;location;lat;lon;timestamp;P1;durP1;ratioP1;P2;durP2;ratioP2
37451;SDS011;23314;51.114;6.900;2022-09-13T00:00:42;4.73;;;4.33;;
37451;SDS011;23314;51.114;6.900;2022-09-13T00:03:09;5.50;;;3.90;;
37451;SDS011;23314;51.114;6.900;2022-09-13T00:05:36;4.60;;;4.13;;
37451;SDS011;23314;51.114;6.900;2022-09-13T00:08:02;5.97;;;4.80;;
37451;SDS011;23314;51.114;6.900;2022-09-13T00:10:28;8.47;;;4.60;;
37451;SDS011;23314;51.114;6.900;2022-09-13T00:12:54;4.47;;;4.07;;
37451;SDS011;23314;51.114;6.900;2022-09-13T00:15:19;5.20;;;4.80;;
37451;SDS011;23314;51.114;6.900;2022-09-13T00:17:45;4.97;;;4.47;;
37451;SDS011;23314;51.114;6.900;2022-09-13T00:20:11;5.13;;;4.60;;
37451;SDS011;23314;51.114;6.900;2022-09-13T00:22:37;4.67;;;4.27;;
37451;SDS011;23314;51.114;6.900;2022-09-13T00:25:02;6.80;;;4.30;;
37451;SDS011;23314;51.114;6.900;2022-09-13T00:27:31;8.03;;;5.07;;
37451;SDS011;23314;51.114;6.900;2022-09-13T00:29:57;6.83;;;4.93;;
37451;SDS011;23314;51.114;6.900;2022-09-13T00:32:22;5.03;;;4.40;;
37451;SDS011;23314;51.114;6.900;2022-09-13T00:34:47;7.33;;;4.60;;
37451;SDS011;23314;51.114;6.900;2022-09-13T00:37:12;4.70;;;4.30;;
37451;SDS011;23314;51.114;6.900;2022-09-13T00:39:38;6.10;;;4.50;;
37451;SDS011;23314;51.114;6.900;2022-09-13T00:42:03;4.27;;;3.97;;
37451;SDS011;23314;51.114;6.900;2022-09-13T00:50:10;4.80;;;4.30;;
37451;SDS011;23314;51.114;6.900;2022-09-13T00:52:43;7.27;;;4.53;;
37451;SDS011;23314;51.114;6.900;2022-09-13T00:55:20;4.50;;;4.20;;
37451;SDS011;23314;51.114;6.900;2022-09-13T00:57:50;7.67;;;4.20;;
37451;SDS011;23314;51.114;6.900;2022-09-13T01:00:18;4.70;;;3.70;;
37451;SDS011;23314;51.114;6.900;2022-09-13T01:02:48;5.77;;;4.43;;
37451;SDS011;23314;51.114;6.900;2022-09-13T01:05:19;10.57;;;4.53;;
37451;SDS011;23314;51.114;6.900;2022-09-13T01:07:48;5.67;;;4.00;;
37451;SDS011;23314;51.114;6.900;2022-09-13T01:10:14;5.93;;;4.33;;
37451;SDS011;23314;51.114;6.900;2022-09-13T01:12:41;6.77;;;4.50;;
37451;SDS011;23314;51.114;6.900;2022-09-13T01:15:13;4.90;;;4.40;;
37451;SDS011;23314;51.114;6.900;2022-09-13T01:17:39;5.30;;;4.23;;
37451;SDS011;23314;51.114;6.900;2022-09-13T01:20:07;7.40;;;4.57;;
37451;SDS011;23314;51.114;6.900;2022-09-13T01:22:40;5.57;;;4.40;;
37451;SDS011;23314;51.114;6.900;2022-09-13T01:25:33;5.13;;;4.60;;
37451;SDS011;23314;51.114;6.900;2022-09-13T01:28:19;5.93;;;4.93;;
37451;SDS011;23314;51.114;6.900;2022-09-13T01:39:10;5.47;;;4.87;;
37451;SDS011;23314;51.114;6.900;2022-09-13T01:47:39;5.30;;;4.90;;
37451;SDS011;23314;51.114;6.900;2022-09-13T01:50:11;6.57;;;5.33;;
37451;SDS011;23314;51.114;6.900;2022-09-13T01:55:41;6.67;;;5.10;;
37451;SDS011;23314;51.114;6.900;2022-09-13T02:01:11;5.00;;;4.53;;
37451;SDS011;23314;51.114;6.900;2022-09-13T02:03:54;4.90;;;4.40;;
37451;SDS011;23314;51.114;6.900;2022-09-13T02:06:25;5.73;;;5.03;;
37451;SDS011;23314;51.114;6.900;2022-09-13T02:08:56;7.57;;;5.43;;
37451;SDS011;23314;51.114;6.900;2022-09-13T02:11:25;5.30;;;4.80;;
37451;SDS011;23314;51.114;6.900;2022-09-13T02:14:08;6.00;;;4.63;;
37451;SDS011;23314;51.114;6.900;2022-09-13T02:16:52;5.03;;;4.63;;
37451;SDS011;23314;51.114;6.900;2022-09-13T02:19:34;5.73;;;4.50;;
37451;SDS011;23314;51.114;6.900;2022-09-13T02:22:02;7.33;;;5.10;;
37451;SDS011;23314;51.114;6.900;2022-09-13T02:24:32;6.30;;;4.90;;
37451;SDS011;23314;51.114;6.900;2022-09-13T02:27:02;5.13;;;4.70;;
37451;SDS011;23314;51.114;6.900;2022-09-13T02:29:32;5.30;;;4.80;;
37451;SDS011;23314;51.114;6.900;2022-09-13T02:32:05;6.63;;;4.43;;
37451;SDS011;23314;51.114;6.900;2022-09-13T02:34:41;5.47;;;4.97;;
37451;SDS011;23314;51.114;6.900;2022-09-13T02:37:10;6.40;;;5.20;;
37451;SDS011;23314;51.114;6.900;2022-09-13T02:39:39;5.67;;;5.20;;
37451;SDS011;23314;51.114;6.900;2022-09-13T02:42:11;6.87;;;4.80;;
37451;SDS011;23314;51.114;6.900;2022-09-13T02:50:18;6.63;;;5.37;;
37451;SDS011;23314;51.114;6.900;2022-09-13T02:53:19;6.53;;;5.70;;
37451;SDS011;23314;51.114;6.900;2022-09-13T02:56:02;7.77;;;6.00;;
37451;SDS011;23314;51.114;6.900;2022-09-13T03:01:39;6.93;;;5.20;;
37451;SDS011;23314;51.114;6.900;2022-09-13T03:04:08;6.23;;;5.63;;
37451;SDS011;23314;51.114;6.900;2022-09-13T03:06:33;7.43;;;5.83;;
37451;SDS011;23314;51.114;6.900;2022-09-13T03:08:59;6.93;;;5.10;;
37451;SDS011;23314;51.114;6.900;2022-09-13T03:11:36;6.13;;;5.53;;
37451;SDS011;23314;51.114;6.900;2022-09-13T03:14:17;10.63;;;5.90;;
37451;SDS011;23314;51.114;6.900;2022-09-13T03:17:27;6.17;;;5.57;;
37451;SDS011;23314;51.114;6.900;2022-09-13T03:20:13;7.90;;;5.17;;
37451;SDS011;23314;51.114;6.900;2022-09-13T03:28:19;6.13;;;5.60;;
37451;SDS011;23314;51.114;6.900;2022-09-13T03:30:58;7.30;;;5.33;;
37451;SDS011;23314;51.114;6.900;2022-09-13T03:36:51;6.40;;;5.80;;
37451;SDS011;23314;51.114;6.900;2022-09-13T03:39:33;8.77;;;5.70;;
37451;SDS011;23314;51.114;6.900;2022-09-13T03:42:08;7.47;;;5.60;;
37451;SDS011;23314;51.114;6.900;2022-09-13T03:44:38;9.60;;;6.57;;
37451;SDS011;23314;51.114;6.900;2022-09-13T03:47:06;5.80;;;5.30;;
37451;SDS011;23314;51.114;6.900;2022-09-13T03:49:32;8.67;;;5.97;;
37451;SDS011;23314;51.114;6.900;2022-09-13T03:52:02;5.93;;;5.43;;
37451;SDS011;23314;51.114;6.900;2022-09-13T03:54:28;8.97;;;6.27;;
37451;SDS011;23314;51.114;6.900;2022-09-13T03:59:39;6.93;;;6.33;;
37451;SDS011;23314;51.114;6.900;2022-09-13T04:02:08;6.47;;;5.90;;
37451;SDS011;23314;51.114;6.900;2022-09-13T04:04:35;6.53;;;5.87;;
37451;SDS011;23314;51.114;6.900;2022-09-13T04:07:01;7.20;;;5.50;;
37451;SDS011;23314;51.114;6.900;2022-09-13T04:09:28;6.70;;;5.77;;
37451;SDS011;23314;51.114;6.900;2022-09-13T04:11:55;6.40;;;5.83;;
37451;SDS011;23314;51.114;6.900;2022-09-13T04:14:20;6.40;;;5.57;;
37451;SDS011;23314;51.114;6.900;2022-09-13T04:16:46;7.57;;;5.70;;
37451;SDS011;23314;51.114;6.900;2022-09-13T04:19:12;5.97;;;5.40;;
37451;SDS011;23314;51.114;6.900;2022-09-13T04:21:38;6.93;;;5.10;;
37451;SDS011;23314;51.114;6.900;2022-09-13T04:24:03;5.93;;;5.47;;
37451;SDS011;23314;51.114;6.900;2022-09-13T04:26:28;6.27;;;5.67;;
37451;SDS011;23314;51.114;6.900;2022-09-13T04:28:54;6.20;;;5.70;;
37451;SDS011;23314;51.114;6.900;2022-09-13T04:31:19;6.10;;;5.60;;
37451;SDS011;23314;51.114;6.900;2022-09-13T04:33:45;8.00;;;5.53;;
37451;SDS011;23314;51.114;6.900;2022-09-13T04:36:10;5.70;;;5.00;;
37451;SDS011;23314;51.114;6.900;2022-09-13T04:38:35;6.83;;;5.90;;
37451;SDS011;23314;51.114;6.900;2022-09-13T04:41:01;5.60;;;5.10;;
37451;SDS011;23314;51.114;6.900;2022-09-13T04:43:27;6.00;;;5.50;;
37451;SDS011;23314;51.114;6.900;2022-09-13T04:45:52;8.67;;;5.80;;
37451;SDS011;23314;51.114;6.900;2022-09-13T04:48:18;6.47;;;5.87;;
37451;SDS011;23314;51.114;6.900;2022-09-13T04:50:43;7.30;;;5.80;;
37451;SDS011;23314;51.114;6.900;2022-09-13T04:53:09;8.20;;;6.23;;
37451;SDS011;23314;51.114;6.900;2022-09-13T04:55:34;6.37;;;5.77;;
37451;SDS011;23314;51.114;6.900;2022-09-13T04:58:01;10.77;;;5.80;;
37451;SDS011;23314;51.114;6.900;2022-09-13T05:00:26;5.97;;;5.47;;
37451;SDS011;23314;51.114;6.900;2022-09-13T05:02:55;11.53;;;6.90;;
37451;SDS011;23314;51.114;6.900;2022-09-13T05:05:20;6.70;;;5.93;;
37451;SDS011;23314;51.114;6.900;2022-09-13T05:07:49;8.73;;;6.73;;
37451;SDS011;23314;51.114;6.900;2022-09-13T05:10:15;9.13;;;6.53;;
37451;SDS011;23314;51.114;6.900;2022-09-13T05:12:40;11.33;;;7.37;;
37451;SDS011;23314;51.114;6.900;2022-09-13T05:15:06;7.30;;;6.60;;
37451;SDS011;23314;51.114;6.900;2022-09-13T05:17:31;8.83;;;6.27;;
37451;SDS011;23314;51.114;6.900;2022-09-13T05:19:57;7.87;;;6.20;;
37451;SDS011;23314;51.114;6.900;2022-09-13T05:22:22;7.27;;;5.77;;
37451;SDS011;23314;51.114;6.900;2022-09-13T05:24:47;6.23;;;5.53;;
37451;SDS011;23314;51.114;6.900;2022-09-13T05:27:13;9.03;;;6.07;;
37451;SDS011;23314;51.114;6.900;2022-09-13T05:29:38;5.90;;;5.40;;
37451;SDS011;23314;51.114;6.900;2022-09-13T05:32:04;5.43;;;4.93;;
37451;SDS011;23314;51.114;6.900;2022-09-13T05:34:29;5.13;;;4.63;;
37451;SDS011;23314;51.114;6.900;2022-09-13T05:36:54;5.73;;;4.87;;
37451;SDS011;23314;51.114;6.900;2022-09-13T05:39:19;5.73;;;5.00;;
37451;SDS011;23314;51.114;6.900;2022-09-13T05:41:46;6.10;;;5.03;;
37451;SDS011;23314;51.114;6.900;2022-09-13T05:44:12;5.13;;;4.73;;
37451;SDS011;23314;51.114;6.900;2022-09-13T05:46:37;5.37;;;4.77;;
37451;SDS011;23314;51.114;6.900;2022-09-13T05:49:03;4.80;;;4.40;;
37451;SDS011;23314;51.114;6.900;2022-09-13T05:51:28;5.87;;;4.80;;
37451;SDS011;23314;51.114;6.900;2022-09-13T05:53:53;4.90;;;4.50;;
37451;SDS011;23314;51.114;6.900;2022-09-13T05:56:22;8.80;;;5.53;;
37451;SDS011;23314;51.114;6.900;2022-09-13T05:58:49;6.27;;;4.50;;
37451;SDS011;23314;51.114;6.900;2022-09-13T06:01:17;7.23;;;4.77;;
37451;SDS011;23314;51.114;6.900;2022-09-13T06:03:46;6.50;;;5.13;;
37451;SDS011;23314;51.114;6.900;2022-09-13T06:06:12;4.57;;;4.00;;
37451;SDS011;23314;51.114;6.900;2022-09-13T06:08:37;5.57;;;4.47;;
37451;SDS011;23314;51.114;6.900;2022-09-13T06:11:04;5.73;;;4.50;;
37451;SDS011;23314;51.114;6.900;2022-09-13T06:13:31;8.73;;;4.70;;
37451;SDS011;23314;51.114;6.900;2022-09-13T06:15:58;6.77;;;4.50;;
37451;SDS011;23314;51.114;6.900;2022-09-13T06:18:24;4.40;;;3.63;;
37451;SDS011;23314;51.114;6.900;2022-09-13T06:20:50;4.27;;;3.90;;
37451;SDS011;23314;51.114;6.900;2022-09-13T06:23:21;8.15;;;4.70;;
37451;SDS011;23314;51.114;6.900;2022-09-13T06:25:46;4.43;;;4.10;;
37451;SDS011;23314;51.114;6.900;2022-09-13T06:28:12;5.97;;;4.72;;
37451;SDS011;23314;51.114;6.900;2022-09-13T06:30:37;9.10;;;5.22;;
37451;SDS011;23314;51.114;6.900;2022-09-13T06:33:02;6.30;;;4.70;;
37451;SDS011;23314;51.114;6.900;2022-09-13T06:35:28;6.45;;;5.32;;
37451;SDS011;23314;51.114;6.900;2022-09-13T06:37:54;6.50;;;5.35;;
37451;SDS011;23314;51.114;6.900;2022-09-13T06:40:21;6.68;;;5.22;;
37451;SDS011;23314;51.114;6.900;2022-09-13T06:42:47;8.95;;;5.78;;
37451;SDS011;23314;51.114;6.900;2022-09-13T06:45:13;9.93;;;5.20;;
37451;SDS011;23314;51.114;6.900;2022-09-13T06:47:38;5.95;;;5.32;;
37451;SDS011;23314;51.114;6.900;2022-09-13T06:50:04;9.95;;;5.18;;
37451;SDS011;23314;51.114;6.900;2022-09-13T06:52:29;9.90;;;5.28;;
37451;SDS011;23314;51.114;6.900;2022-09-13T06:54:55;7.43;;;5.45;;
37451;SDS011;23314;51.114;6.900;2022-09-13T06:57:20;8.60;;;4.90;;
37451;SDS011;23314;51.114;6.900;2022-09-13T06:59:45;7.65;;;5.07;;
37451;SDS011;23314;51.114;6.900;2022-09-13T07:02:11;8.63;;;5.28;;
37451;SDS011;23314;51.114;6.900;2022-09-13T07:04:38;10.32;;;4.75;;
37451;SDS011;23314;51.114;6.900;2022-09-13T07:07:03;8.13;;;5.00;;
37451;SDS011;23314;51.114;6.900;2022-09-13T07:09:29;9.15;;;5.32;;
37451;SDS011;23314;51.114;6.900;2022-09-13T07:11:55;8.82;;;5.00;;
37451;SDS011;23314;51.114;6.900;2022-09-13T07:14:21;9.00;;;5.38;;
37451;SDS011;23314;51.114;6.900;2022-09-13T07:16:49;8.70;;;5.03;;
37451;SDS011;23314;51.114;6.900;2022-09-13T07:19:17;9.60;;;5.10;;
37451;SDS011;23314;51.114;6.900;2022-09-13T07:21:44;7.55;;;5.22;;
37451;SDS011;23314;51.114;6.900;2022-09-13T07:24:10;8.15;;;5.32;;
37451;SDS011;23314;51.114;6.900;2022-09-13T07:26:36;5.75;;;4.78;;
37451;SDS011;23314;51.114;6.900;2022-09-13T07:29:06;9.38;;;5.22;;
37451;SDS011;23314;51.114;6.900;2022-09-13T07:31:37;6.50;;;5.47;;
37451;SDS011;23314;51.114;6.900;2022-09-13T07:34:07;7.88;;;5.10;;
37451;SDS011;23314;51.114;6.900;2022-09-13T07:36:37;9.98;;;5.38;;
37451;SDS011;23314;51.114;6.900;2022-09-13T07:39:03;6.70;;;4.40;;
37451;SDS011;23314;51.114;6.900;2022-09-13T07:41:29;6.65;;;4.57;;
37451;SDS011;23314;51.114;6.900;2022-09-13T07:43:57;7.70;;;4.80;;
37451;SDS011;23314;51.114;6.900;2022-09-13T07:46:24;10.40;;;5.10;;
37451;SDS011;23314;51.114;6.900;2022-09-13T07:48:54;6.32;;;4.60;;
37451;SDS011;23314;51.114;6.900;2022-09-13T07:51:21;9.15;;;5.35;;
37451;SDS011;23314;51.114;6.900;2022-09-13T07:53:49;10.27;;;5.05;;
37451;SDS011;23314;51.114;6.900;2022-09-13T07:56:16;8.57;;;5.13;;
37451;SDS011;23314;51.114;6.900;2022-09-13T07:58:44;9.00;;;4.85;;
37451;SDS011;23314;51.114;6.900;2022-09-13T08:01:14;7.38;;;4.75;;
37451;SDS011;23314;51.114;6.900;2022-09-13T08:03:43;6.40;;;4.72;;
37451;SDS011;23314;51.114;6.900;2022-09-13T08:06:09;5.85;;;4.75;;
37451;SDS011;23314;51.114;6.900;2022-09-13T08:08:35;9.52;;;5.00;;
37451;SDS011;23314;51.114;6.900;2022-09-13T08:11:02;9.63;;;5.00;;
37451;SDS011;23314;51.114;6.900;2022-09-13T08:13:29;5.78;;;4.97;;
37451;SDS011;23314;51.114;6.900;2022-09-13T08:15:59;7.93;;;4.43;;
37451;SDS011;23314;51.114;6.900;2022-09-13T08:18:26;5.53;;;4.60;;
37451;SDS011;23314;51.114;6.900;2022-09-13T08:20:54;6.43;;;4.50;;
37451;SDS011;23314;51.114;6.900;2022-09-13T08:23:21;10.57;;;4.43;;
37451;SDS011;23314;51.114;6.900;2022-09-13T08:25:46;26.33;;;9.45;;
37451;SDS011;23314;51.114;6.900;2022-09-13T08:28:15;7.40;;;4.32;;
37451;SDS011;23314;51.114;6.900;2022-09-13T08:30:42;6.25;;;4.95;;
37451;SDS011;23314;51.114;6.900;2022-09-13T08:33:09;7.30;;;4.50;;
37451;SDS011;23314;51.114;6.900;2022-09-13T08:35:36;9.00;;;4.55;;
37451;SDS011;23314;51.114;6.900;2022-09-13T08:38:02;5.07;;;4.45;;
37451;SDS011;23314;51.114;6.900;2022-09-13T08:40:29;5.65;;;4.82;;
37451;SDS011;23314;51.114;6.900;2022-09-13T08:43:04;8.45;;;4.50;;
37451;SDS011;23314;51.114;6.900;2022-09-13T08:45:38;7.07;;;4.35;;
37451;SDS011;23314;51.114;6.900;2022-09-13T08:48:07;5.40;;;4.18;;
37451;SDS011;23314;51.114;6.900;2022-09-13T08:50:37;7.05;;;4.50;;
37451;SDS011;23314;51.114;6.900;2022-09-13T08:55:52;8.40;;;4.72;;
37451;SDS011;23314;51.114;6.900;2022-09-13T08:58:43;9.20;;;4.57;;
37451;SDS011;23314;51.114;6.900;2022-09-13T09:01:21;7.68;;;3.80;;
37451;SDS011;23314;51.114;6.900;2022-09-13T09:04:24;5.60;;;4.00;;
37451;SDS011;23314;51.114;6.900;2022-09-13T09:07:02;5.13;;;3.50;;
37451;SDS011;23314;51.114;6.900;2022-09-13T09:09:44;5.28;;;3.47;;
37451;SDS011;23314;51.114;6.900;2022-09-13T09:12:38;6.93;;;4.10;;
37451;SDS011;23314;51.114;6.900;2022-09-13T09:18:12;7.07;;;4.30;;
37451;SDS011;23314;51.114;6.900;2022-09-13T09:20:43;6.47;;;3.97;;
37451;SDS011;23314;51.114;6.900;2022-09-13T09:25:56;7.00;;;4.03;;
37451;SDS011;23314;51.114;6.900;2022-09-13T09:28:29;9.82;;;4.65;;
37451;SDS011;23314;51.114;6.900;2022-09-13T09:31:03;5.28;;;4.57;;
37451;SDS011;23314;51.114;6.900;2022-09-13T09:37:16;4.85;;;4.13;;
37451;SDS011;23314;51.114;6.900;2022-09-13T09:39:31;5.93;;;3.90;;
37451;SDS011;23314;51.114;6.900;2022-09-13T09:41:57;5.43;;;3.63;;
37451;SDS011;23314;51.114;6.900;2022-09-13T09:44:25;5.45;;;4.20;;
37451;SDS011;23314;51.114;6.900;2022-09-13T09:46:56;5.28;;;4.10;;
37451;SDS011;23314;51.114;6.900;2022-09-13T09:52:19;5.13;;;3.72;;
37451;SDS011;23314;51.114;6.900;2022-09-13T09:54:46;6.03;;;3.92;;
37451;SDS011;23314;51.114;6.900;2022-09-13T09:57:14;4.32;;;3.92;;
37451;SDS011;23314;51.114;6.900;2022-09-13T09:59:42;10.60;;;4.40;;
37451;SDS011;23314;51.114;6.900;2022-09-13T10:02:18;6.25;;;3.90;;
37451;SDS011;23314;51.114;6.900;2022-09-13T10:04:55;7.78;;;4.88;;
37451;SDS011;23314;51.114;6.900;2022-09-13T10:07:25;7.07;;;4.22;;
37451;SDS011;23314;51.114;6.900;2022-09-13T10:09:56;4.65;;;3.78;;
37451;SDS011;23314;51.114;6.900;2022-09-13T10:12:24;4.78;;;3.55;;
37451;SDS011;23314;51.114;6.900;2022-09-13T10:14:52;5.78;;;4.15;;
37451;SDS011;23314;51.114;6.900;2022-09-13T10:18:11;6.53;;;4.00;;
37451;SDS011;23314;51.114;6.900;2022-09-13T10:20:40;4.53;;;4.10;;
37451;SDS011;23314;51.114;6.900;2022-09-13T10:23:10;5.22;;;4.18;;
37451;SDS011;23314;51.114;6.900;2022-09-13T10:25:39;8.02;;;4.30;;
37451;SDS011;23314;51.114;6.900;2022-09-13T10:28:09;5.05;;;4.03;;
37451;SDS011;23314;51.114;6.900;2022-09-13T10:30:43;6.70;;;4.63;;
37451;SDS011;23314;51.114;6.900;2022-09-13T10:33:20;4.63;;;4.22;;
37451;SDS011;23314;51.114;6.900;2022-09-13T10:35:55;8.77;;;3.65;;
37451;SDS011;23314;51.114;6.900;2022-09-13T10:38:26;5.55;;;3.22;;
37451;SDS011;23314;51.114;6.900;2022-09-13T10:40:54;3.75;;;3.28;;
37451;SDS011;23314;51.114;6.900;2022-09-13T10:43:20;6.35;;;4.15;;
37451;SDS011;23314;51.114;6.900;2022-09-13T10:45:48;5.10;;;3.30;;
37451;SDS011;23314;51.114;6.900;2022-09-13T10:48:16;4.97;;;3.40;;
37451;SDS011;23314;51.114;6.900;2022-09-13T10:51:00;3.30;;;3.00;;
37451;SDS011;23314;51.114;6.900;2022-09-13T10:53:37;4.70;;;2.67;;
37451;SDS011;23314;51.114;6.900;2022-09-13T10:56:05;3.83;;;2.92;;
37451;SDS011;23314;51.114;6.900;2022-09-13T10:58:43;4.25;;;2.97;;
37451;SDS011;23314;51.114;6.900;2022-09-13T11:09:09;2.90;;;2.70;;
37451;SDS011;23314;51.114;6.900;2022-09-13T11:11:52;3.88;;;2.60;;
37451;SDS011;23314;51.114;6.900;2022-09-13T11:17:16;3.88;;;2.78;;
37451;SDS011;23314;51.114;6.900;2022-09-13T11:19:56;3.17;;;2.30;;
37451;SDS011;23314;51.114;6.900;2022-09-13T11:28:10;3.55;;;2.20;;
37451;SDS011;23314;51.114;6.900;2022-09-13T11:50:34;5.93;;;2.88;;
37451;SDS011;23314;51.114;6.900;2022-09-13T11:53:20;6.60;;;2.75;;
37451;SDS011;23314;51.114;6.900;2022-09-13T11:55:58;5.55;;;2.55;;
37451;SDS011;23314;51.114;6.900;2022-09-13T11:58:33;4.25;;;2.10;;
37451;SDS011;23314;51.114;6.900;2022-09-13T12:01:09;3.92;;;2.47;;
37451;SDS011;23314;51.114;6.900;2022-09-13T12:03:42;4.07;;;2.50;;
37451;SDS011;23314;51.114;6.900;2022-09-13T12:06:18;5.05;;;2.60;;
37451;SDS011;23314;51.114;6.900;2022-09-13T12:08:51;4.93;;;2.72;;
37451;SDS011;23314;51.114;6.900;2022-09-13T12:11:22;4.18;;;2.95;;
37451;SDS011;23314;51.114;6.900;2022-09-13T12:13:56;3.85;;;2.80;;
37451;SDS011;23314;51.114;6.900;2022-09-13T12:16:25;2.85;;;2.45;;
37451;SDS011;23314;51.114;6.900;2022-09-13T12:19:22;4.28;;;3.25;;
37451;SDS011;23314;51.114;6.900;2022-09-13T12:21:52;7.13;;;3.15;;
37451;SDS011;23314;51.114;6.900;2022-09-13T12:27:30;4.70;;;3.00;;
37451;SDS011;23314;51.114;6.900;2022-09-13T12:30:08;3.45;;;2.67;;
37451;SDS011;23314;51.114;6.900;2022-09-13T12:32:39;5.03;;;2.17;;
37451;SDS011;23314;51.114;6.900;2022-09-13T12:40:30;4.18;;;2.53;;
37451;SDS011;23314;51.114;6.900;2022-09-13T12:43:09;6.05;;;2.63;;
37451;SDS011;23314;51.114;6.900;2022-09-13T12:53:54;4.93;;;2.95;;
37451;SDS011;23314;51.114;6.900;2022-09-13T13:02:27;4.57;;;2.40;;
37451;SDS011;23314;51.114;6.900;2022-09-13T13:04:57;3.65;;;2.20;;
37451;SDS011;23314;51.114;6.900;2022-09-13T13:07:24;4.55;;;2.72;;
37451;SDS011;23314;51.114;6.900;2022-09-13T13:09:53;3.80;;;2.33;;
37451;SDS011;23314;51.114;6.900;2022-09-13T13:14:54;5.07;;;2.47;;
37451;SDS011;23314;51.114;6.900;2022-09-13T13:17:34;3.25;;;2.70;;
37451;SDS011;23314;51.114;6.900;2022-09-13T13:23:14;4.72;;;2.70;;
37451;SDS011;23314;51.114;6.900;2022-09-13T13:31:32;5.88;;;2.13;;
37451;SDS011;23314;51.114;6.900;2022-09-13T13:39:46;6.45;;;2.30;;
37451;SDS011;23314;51.114;6.900;2022-09-13T13:41:59;4.03;;;2.20;;
37451;SDS011;23314;51.114;6.900;2022-09-13T13:59:50;3.15;;;2.10;;
37451;SDS011;23314;51.114;6.900;2022-09-13T14:02:20;9.38;;;2.50;;
37451;SDS011;23314;51.114;6.900;2022-09-13T14:04:58;3.65;;;2.45;;
37451;SDS011;23314;51.114;6.900;2022-09-13T14:18:56;7.38;;;3.00;;
37451;SDS011;23314;51.114;6.900;2022-09-13T14:21:41;2.58;;;2.15;;
37451;SDS011;23314;51.114;6.900;2022-09-13T14:24:08;5.13;;;2.00;;
37451;SDS011;23314;51.114;6.900;2022-09-13T14:26:40;5.82;;;2.97;;
37451;SDS011;23314;51.114;6.900;2022-09-13T14:29:06;2.50;;;2.30;;
37451;SDS011;23314;51.114;6.900;2022-09-13T14:31:32;5.15;;;2.60;;
37451;SDS011;23314;51.114;6.900;2022-09-13T14:34:19;7.15;;;2.70;;
37451;SDS011;23314;51.114;6.900;2022-09-13T14:36:52;3.17;;;2.40;;
37451;SDS011;23314;51.114;6.900;2022-09-13T14:39:19;5.53;;;2.65;;
37451;SDS011;23314;51.114;6.900;2022-09-13T14:41:45;4.32;;;2.40;;
37451;SDS011;23314;51.114;6.900;2022-09-13T14:44:15;4.60;;;2.20;;
37451;SDS011;23314;51.114;6.900;2022-09-13T14:46:43;5.30;;;3.72;;
37451;SDS011;23314;51.114;6.900;2022-09-13T14:49:14;5.80;;;2.70;;
37451;SDS011;23314;51.114;6.900;2022-09-13T14:51:49;3.90;;;2.92;;
37451;SDS011;23314;51.114;6.900;2022-09-13T14:54:22;3.50;;;2.90;;
37451;SDS011;23314;51.114;6.900;2022-09-13T14:56:58;5.10;;;2.35;;
37451;SDS011;23314;51.114;6.900;2022-09-13T14:59:47;6.38;;;2.72;;
37451;SDS011;23314;51.114;6.900;2022-09-13T15:02:17;7.07;;;3.25;;
37451;SDS011;23314;51.114;6.900;2022-09-13T15:04:55;4.18;;;2.72;;
37451;SDS011;23314;51.114;6.900;2022-09-13T15:07:29;2.78;;;2.53;;
37451;SDS011;23314;51.114;6.900;2022-09-13T15:09:57;6.43;;;3.58;;
37451;SDS011;23314;51.114;6.900;2022-09-13T15:12:34;5.28;;;3.20;;
37451;SDS011;23314;51.114;6.900;2022-09-13T15:18:06;2.60;;;2.42;;
37451;SDS011;23314;51.114;6.900;2022-09-13T15:23:17;3.10;;;2.65;;
37451;SDS011;23314;51.114;6.900;2022-09-13T15:25:48;3.15;;;2.85;;
37451;SDS011;23314;51.114;6.900;2022-09-13T15:28:21;4.05;;;2.53;;
37451;SDS011;23314;51.114;6.900;2022-09-13T15:30:53;2.92;;;2.28;;
37451;SDS011;23314;51.114;6.900;2022-09-13T15:33:22;3.20;;;2.60;;
37451;SDS011;23314;51.114;6.900;2022-09-13T15:35:51;3.97;;;2.70;;
37451;SDS011;23314;51.114;6.900;2022-09-13T15:38:36;5.22;;;2.50;;
37451;SDS011;23314;51.114;6.900;2022-09-13T15:41:10;2.53;;;2.30;;
37451;SDS011;23314;51.114;6.900;2022-09-13T15:43:36;4.97;;;2.28;;
37451;SDS011;23314;51.114;6.900;2022-09-13T15:46:01;5.65;;;2.50;;
37451;SDS011;23314;51.114;6.900;2022-09-13T15:48:35;3.97;;;2.50;;
37451;SDS011;23314;51.114;6.900;2022-09-13T15:51:06;5.22;;;3.10;;
37451;SDS011;23314;51.114;6.900;2022-09-13T15:53:33;4.30;;;4.00;;
37451;SDS011;23314;51.114;6.900;2022-09-13T15:55:59;5.28;;;4.00;;
37451;SDS011;23314;51.114;6.900;2022-09-13T15:58:25;5.10;;;4.70;;
37451;SDS011;23314;51.114;6.900;2022-09-13T16:00:51;6.15;;;4.90;;
37451;SDS011;23314;51.114;6.900;2022-09-13T16:03:16;6.28;;;4.95;;
37451;SDS011;23314;51.114;6.900;2022-09-13T16:05:41;10.75;;;4.75;;
37451;SDS011;23314;51.114;6.900;2022-09-13T16:08:08;5.38;;;4.88;;
37451;SDS011;23314;51.114;6.900;2022-09-13T16:10:35;5.43;;;4.90;;
37451;SDS011;23314;51.114;6.900;2022-09-13T16:13:00;5.38;;;4.97;;
37451;SDS011;23314;51.114;6.900;2022-09-13T16:15:26;5.82;;;5.25;;
37451;SDS011;23314;51.114;6.900;2022-09-13T16:17:52;5.20;;;4.80;;
37451;SDS011;23314;51.114;6.900;2022-09-13T16:20:17;5.57;;;4.63;;
37451;SDS011;23314;51.114;6.900;2022-09-13T16:22:43;7.38;;;5.20;;
37451;SDS011;23314;51.114;6.900;2022-09-13T16:25:10;5.90;;;5.40;;
37451;SDS011;23314;51.114;6.900;2022-09-13T16:27:37;9.30;;;5.15;;
37451;SDS011;23314;51.114;6.900;2022-09-13T16:30:03;5.97;;;5.20;;
37451;SDS011;23314;51.114;6.900;2022-09-13T16:32:29;6.18;;;5.57;;
37451;SDS011;23314;51.114;6.900;2022-09-13T16:34:54;6.43;;;4.80;;
37451;SDS011;23314;51.114;6.900;2022-09-13T16:37:20;6.38;;;4.85;;
37451;SDS011;23314;51.114;6.900;2022-09-13T16:39:45;7.75;;;4.60;;
37451;SDS011;23314;51.114;6.900;2022-09-13T16:42:12;5.50;;;4.43;;
37451;SDS011;23314;51.114;6.900;2022-09-13T16:44:38;4.95;;;4.45;;
37451;SDS011;23314;51.114;6.900;2022-09-13T16:47:03;9.65;;;4.32;;
37451;SDS011;23314;51.114;6.900;2022-09-13T16:49:28;8.00;;;4.32;;
37451;SDS011;23314;51.114;6.900;2022-09-13T16:51:54;5.35;;;4.95;;
37451;SDS011;23314;51.114;6.900;2022-09-13T16:54:23;5.28;;;4.78;;
37451;SDS011;23314;51.114;6.900;2022-09-13T16:56:48;6.25;;;4.88;;
37451;SDS011;23314;51.114;6.900;2022-09-13T16:59:14;7.85;;;5.00;;
37451;SDS011;23314;51.114;6.900;2022-09-13T17:01:39;6.68;;;4.50;;
37451;SDS011;23314;51.114;6.900;2022-09-13T17:04:04;9.68;;;4.20;;
37451;SDS011;23314;51.114;6.900;2022-09-13T17:06:30;8.35;;;4.60;;
37451;SDS011;23314;51.114;6.900;2022-09-13T17:08:56;4.22;;;3.92;;
37451;SDS011;23314;51.114;6.900;2022-09-13T17:11:31;4.40;;;3.83;;
37451;SDS011;23314;51.114;6.900;2022-09-13T17:14:02;6.15;;;4.20;;
37451;SDS011;23314;51.114;6.900;2022-09-13T17:16:36;6.55;;;4.38;;
37451;SDS011;23314;51.114;6.900;2022-09-13T17:19:03;6.20;;;4.50;;
37451;SDS011;23314;51.114;6.900;2022-09-13T17:21:32;7.20;;;4.75;;
37451;SDS011;23314;51.114;6.900;2022-09-13T17:24:00;6.30;;;4.18;;
37451;SDS011;23314;51.114;6.900;2022-09-13T17:26:25;4.93;;;4.40;;
37451;SDS011;23314;51.114;6.900;2022-09-13T17:28:51;5.43;;;4.80;;
37451;SDS011;23314;51.114;6.900;2022-09-13T17:31:17;5.30;;;4.82;;
37451;SDS011;23314;51.114;6.900;2022-09-13T17:33:43;5.63;;;4.40;;
37451;SDS011;23314;51.114;6.900;2022-09-13T17:36:09;7.18;;;4.63;;
37451;SDS011;23314;51.114;6.900;2022-09-13T17:38:36;7.95;;;4.55;;
37451;SDS011;23314;51.114;6.900;2022-09-13T17:41:24;5.68;;;4.50;;
37451;SDS011;23314;51.114;6.900;2022-09-13T17:43:48;7.00;;;4.93;;
37451;SDS011;23314;51.114;6.900;2022-09-13T17:46:15;7.75;;;4.70;;
37451;SDS011;23314;51.114;6.900;2022-09-13T17:48:42;5.75;;;5.25;;
37451;SDS011;23314;51.114;6.900;2022-09-13T17:51:11;7.55;;;5.20;;
37451;SDS011;23314;51.114;6.900;2022-09-13T17:53:42;6.35;;;5.07;;